West Farm, Colorado
Current Conditions -  °F | °C
As of 12:53 AM on Thursday 29 Jan 2015 (Local Time) from KLAA Reporting Station
Clear Clear  
Wind Chill: 31°   Ceiling: Unl
Heat Index: 38°   Visibility: 10mi
Dew Point: 32°   Wind: 9mph
Humidity: 79%   Direction: 270°W
Pressure: 30.29"   Gusts: NA
Location:  37.885°N, 102.667°W
Report Text: KLAA 290753Z AUTO 27008KT 10SM CLR 03/00 A3029 RMK AO2 SLP241 T00330000
Loading
Personal Weather Stations






























Interactive Weather Map New forecast layout! Learn more

10-Day Weather Forecast

Advertisements
Track Severe Weather on mobile